createdAt,value
2018-06-30T00:01:42.784Z,98988.81
2018-06-30T00:04:17.196Z,98986.80
2018-06-30T00:06:51.678Z,98993.47
2018-06-30T00:09:26.296Z,98992.67
2018-06-30T00:12:00.833Z,98982.81
2018-06-30T00:14:35.324Z,98990.71
2018-06-30T00:17:10.034Z,98986.80
2018-06-30T00:19:44.567Z,98989.13
2018-06-30T00:22:19.379Z,98989.98
2018-06-30T00:24:53.933Z,98985.16
2018-06-30T00:27:28.604Z,98982.61
2018-06-30T00:30:03.096Z,98984.08
2018-06-30T00:32:37.623Z,98982.13
2018-06-30T00:35:12.169Z,98981.33
2018-06-30T00:37:46.710Z,98975.86
2018-06-30T00:40:21.284Z,98971.14
2018-06-30T00:42:55.867Z,98962.45
2018-06-30T00:45:30.513Z,98963.09
2018-06-30T00:48:05.220Z,98961.77
2018-06-30T00:50:39.708Z,98962.30
2018-06-30T00:53:14.074Z,98964.37
2018-06-30T00:55:48.462Z,98964.25
2018-06-30T00:58:22.886Z,98960.83
2018-06-30T01:00:57.517Z,98964.47
2018-06-30T01:03:32.132Z,98967.95
2018-06-30T01:06:06.500Z,98968.88
2018-06-30T01:08:40.917Z,98970.71
2018-06-30T01:11:15.511Z,98964.48
2018-06-30T01:13:50.006Z,98973.27
2018-06-30T01:16:24.903Z,98971.03
2018-06-30T01:18:59.439Z,98974.70
2018-06-30T01:21:33.834Z,98978.19
2018-06-30T01:24:08.910Z,98966.23
2018-06-30T01:26:43.614Z,98967.56
2018-06-30T01:29:18.232Z,98963.71
2018-06-30T01:31:52.898Z,98964.36
2018-06-30T01:34:27.561Z,98964.30
2018-06-30T01:37:02.124Z,98960.59
2018-06-30T01:39:36.683Z,98958.42
2018-06-30T01:42:11.217Z,98956.41
2018-06-30T01:44:45.693Z,98954.30
2018-06-30T01:47:20.480Z,98960.31
2018-06-30T01:49:55.007Z,98954.59
2018-06-30T01:52:29.632Z,98954.95
2018-06-30T01:55:04.276Z,98964.95
2018-06-30T01:57:39.129Z,98961.77
2018-06-30T02:00:13.732Z,98952.70
2018-06-30T02:02:48.217Z,98955.75
2018-06-30T02:05:22.657Z,98952.42
2018-06-30T02:07:57.357Z,98952.05
2018-06-30T02:10:31.983Z,98949.02
2018-06-30T02:13:06.701Z,98953.30
2018-06-30T02:15:41.165Z,98945.47
2018-06-30T02:18:15.809Z,98948.38
2018-06-30T02:20:50.355Z,98945.19
2018-06-30T02:23:24.733Z,98948.38
2018-06-30T02:25:59.197Z,98950.54
2018-06-30T02:28:33.656Z,98947.55
2018-06-30T02:31:08.050Z,98947.15
2018-06-30T02:33:42.669Z,98944.58
2018-06-30T02:36:17.091Z,98944.58
2018-06-30T02:38:51.523Z,98946.85
2018-06-30T02:41:25.992Z,98944.72
2018-06-30T02:44:00.614Z,98941.03
2018-06-30T02:46:35.204Z,98942.59
2018-06-30T02:49:09.678Z,98941.57
2018-06-30T02:51:44.112Z,98942.08
2018-06-30T02:54:18.510Z,98945.98
2018-06-30T02:56:53.203Z,98950.72
2018-06-30T02:59:27.908Z,98946.02
2018-06-30T03:02:02.396Z,98943.59
2018-06-30T03:04:37.053Z,98950.94
2018-06-30T03:07:11.716Z,98942.69
2018-06-30T03:09:46.312Z,98942.61
2018-06-30T03:12:20.899Z,98931.47
2018-06-30T03:14:55.457Z,98935.37
2018-06-30T03:17:29.915Z,98933.12
2018-06-30T03:20:04.863Z,98936.95
2018-06-30T03:22:39.341Z,98934.93
2018-06-30T03:25:13.820Z,98932.98
2018-06-30T03:27:48.405Z,98936.28
2018-06-30T03:30:23.044Z,98939.53
2018-06-30T03:32:57.878Z,98936.78
2018-06-30T03:35:32.540Z,98944.84
2018-06-30T03:38:07.022Z,98934.06
2018-06-30T03:40:41.593Z,98935.00
2018-06-30T03:43:16.317Z,98936.81
2018-06-30T03:45:50.822Z,98941.92
2018-06-30T03:48:25.420Z,98944.61
2018-06-30T03:51:00.104Z,98943.19
2018-06-30T03:53:34.574Z,98954.06
2018-06-30T03:56:09.176Z,98942.66
2018-06-30T03:58:43.555Z,98946.20
2018-06-30T04:01:18.141Z,98944.91
2018-06-30T04:03:52.754Z,98938.47
2018-06-30T04:06:27.192Z,98936.31
2018-06-30T04:09:01.792Z,98940.16
2018-06-30T04:11:36.531Z,98940.72
2018-06-30T04:14:11.007Z,98945.19
2018-06-30T04:16:45.447Z,98935.78
2018-06-30T04:19:20.135Z,98929.51
2018-06-30T04:21:54.535Z,98941.00
2018-06-30T04:24:29.045Z,98934.37
2018-06-30T04:27:03.602Z,98939.77
2018-06-30T04:29:38.109Z,98936.22
2018-06-30T04:32:12.505Z,98940.05
2018-06-30T04:34:47.100Z,98941.22
2018-06-30T04:37:21.538Z,98943.70
2018-06-30T04:39:56.305Z,98942.16
2018-06-30T04:42:30.723Z,98950.11
2018-06-30T04:45:05.472Z,98956.12
2018-06-30T04:47:39.932Z,98953.14
2018-06-30T04:50:14.589Z,98955.41
2018-06-30T04:52:49.140Z,98959.23
2018-06-30T04:55:23.705Z,98960.25
2018-06-30T04:57:58.147Z,98967.92
2018-06-30T05:00:32.572Z,98964.04
2018-06-30T05:03:07.249Z,98966.21
2018-06-30T05:05:41.797Z,98966.73
2018-06-30T05:08:16.288Z,98961.86
2018-06-30T05:10:50.678Z,98964.42
2018-06-30T05:13:25.105Z,98964.55
2018-06-30T05:15:59.704Z,98959.81
2018-06-30T05:18:34.198Z,98959.17
2018-06-30T05:21:08.742Z,98962.25
2018-06-30T05:23:43.227Z,98964.16
2018-06-30T05:26:17.837Z,98963.58
2018-06-30T05:28:52.315Z,98960.47
2018-06-30T05:31:26.688Z,98959.31
2018-06-30T05:34:01.201Z,98958.77
2018-06-30T05:36:35.776Z,98956.77
2018-06-30T05:39:10.402Z,98965.42
2018-06-30T05:41:44.929Z,98961.69
2018-06-30T05:44:19.410Z,98964.12
2018-06-30T05:46:53.885Z,98956.84
2018-06-30T05:49:28.356Z,98965.03
2018-06-30T05:52:02.892Z,98968.23
2018-06-30T05:54:37.481Z,98966.34
2018-06-30T05:57:12.065Z,98965.76
2018-06-30T05:59:46.458Z,98962.89
2018-06-30T06:02:20.922Z,98965.09
2018-06-30T06:04:55.572Z,98959.11
2018-06-30T06:07:30.154Z,98960.27
2018-06-30T06:10:04.786Z,98953.17
2018-06-30T06:12:39.335Z,98959.88
2018-06-30T06:15:13.938Z,98957.22
2018-06-30T06:17:48.465Z,98956.97
2018-06-30T06:20:22.912Z,98963.21
2018-06-30T06:22:57.322Z,98966.80
2018-06-30T06:25:32.051Z,98968.92
2018-06-30T06:28:06.966Z,98967.94
2018-06-30T06:30:41.425Z,98961.27
2018-06-30T06:33:15.828Z,98963.80
2018-06-30T06:35:50.189Z,98959.13
2018-06-30T06:38:24.673Z,98964.95
2018-06-30T06:40:59.260Z,98964.89
2018-06-30T06:43:33.644Z,98966.50
2018-06-30T06:46:08.247Z,98960.99
2018-06-30T06:48:42.702Z,98965.11
2018-06-30T06:51:17.152Z,98964.05
2018-06-30T06:53:51.626Z,98954.84
2018-06-30T06:56:26.090Z,98959.14
2018-06-30T06:59:00.643Z,98971.73
2018-06-30T07:01:35.077Z,98966.23
2018-06-30T07:04:09.400Z,98965.30
2018-06-30T07:06:43.898Z,98961.55
2018-06-30T07:09:18.423Z,98960.80
2018-06-30T07:11:54.178Z,98956.17
2018-06-30T07:14:28.848Z,98955.63
2018-06-30T07:17:03.417Z,98965.64
2018-06-30T07:19:37.882Z,98960.53
2018-06-30T07:22:12.333Z,98959.02
2018-06-30T07:24:46.803Z,98961.15
2018-06-30T07:27:21.144Z,98961.90
2018-06-30T07:29:55.552Z,98965.90
2018-06-30T07:32:30.073Z,98964.81
2018-06-30T07:35:05.015Z,98960.05
2018-06-30T07:37:39.342Z,98965.92
2018-06-30T07:40:13.931Z,98960.48
2018-06-30T07:42:48.303Z,98961.39
2018-06-30T07:45:23.282Z,98958.23
2018-06-30T07:47:57.685Z,98963.89
2018-06-30T07:50:32.011Z,98958.53
2018-06-30T07:53:06.560Z,98960.05
2018-06-30T07:55:41.125Z,98960.80
2018-06-30T07:58:15.520Z,98961.20
2018-06-30T08:00:50.033Z,98961.09
2018-06-30T08:03:24.364Z,98957.37
2018-06-30T08:05:58.772Z,98963.27
2018-06-30T08:08:33.279Z,98958.45
2018-06-30T08:11:07.724Z,98955.41
2018-06-30T08:13:42.116Z,98954.87
2018-06-30T08:16:16.804Z,98959.17
2018-06-30T08:18:51.356Z,98962.50
2018-06-30T08:21:26.090Z,98953.81
2018-06-30T08:24:00.619Z,98955.85
2018-06-30T08:26:35.161Z,98962.52
2018-06-30T08:29:09.777Z,98961.08
2018-06-30T08:31:44.249Z,98957.73
2018-06-30T08:34:18.688Z,98954.55
2018-06-30T08:36:53.200Z,98951.16
2018-06-30T08:39:27.645Z,98965.59
2018-06-30T08:42:02.142Z,98956.25
2018-06-30T08:44:36.730Z,98963.44
2018-06-30T08:47:11.038Z,98951.77
2018-06-30T08:49:45.452Z,98952.09
2018-06-30T08:52:19.924Z,98954.13
2018-06-30T08:54:54.728Z,98946.28
2018-06-30T08:57:29.245Z,98946.03
2018-06-30T09:00:05.071Z,98948.41
2018-06-30T09:02:39.539Z,98940.59
2018-06-30T09:05:13.926Z,98942.74
2018-06-30T09:07:48.341Z,98946.58
2018-06-30T09:10:22.833Z,98944.63
2018-06-30T09:12:57.391Z,98949.14
2018-06-30T09:15:31.791Z,98950.52
2018-06-30T09:18:06.628Z,98947.35
2018-06-30T09:20:41.076Z,98949.18
2018-06-30T09:23:15.496Z,98944.41
2018-06-30T09:25:49.840Z,98953.28
2018-06-30T09:28:24.404Z,98941.28
2018-06-30T09:30:58.992Z,98948.02
2018-06-30T09:33:33.484Z,98948.66
2018-06-30T09:36:08.190Z,98946.84
2018-06-30T09:38:42.769Z,98948.64
2018-06-30T09:41:17.260Z,98954.03
2018-06-30T09:43:52.118Z,98950.67
2018-06-30T09:46:26.587Z,98951.42
2018-06-30T09:49:00.987Z,98947.58
2018-06-30T09:51:35.647Z,98951.50
2018-06-30T09:54:10.209Z,98945.66
2018-06-30T09:56:44.765Z,98941.56
2018-06-30T09:59:19.142Z,98939.25
2018-06-30T10:01:53.564Z,98939.40
2018-06-30T10:04:28.244Z,98947.86
2018-06-30T10:07:02.623Z,98941.16
2018-06-30T10:09:37.144Z,98940.56
2018-06-30T10:12:11.528Z,98940.63
2018-06-30T10:14:45.982Z,98940.48
2018-06-30T10:17:20.227Z,98941.31
2018-06-30T10:19:54.471Z,98941.05
2018-06-30T10:22:28.704Z,98941.61
2018-06-30T10:25:03.107Z,98944.72
2018-06-30T10:27:37.472Z,98936.03
2018-06-30T10:30:11.769Z,98940.50
2018-06-30T10:32:46.043Z,98930.62
2018-06-30T10:35:20.476Z,98932.60
2018-06-30T10:37:54.791Z,98927.64
2018-06-30T10:40:29.201Z,98925.70
2018-06-30T10:43:03.481Z,98927.87
2018-06-30T10:45:37.851Z,98924.34
2018-06-30T10:48:12.241Z,98916.97
2018-06-30T10:50:46.672Z,98920.00
2018-06-30T10:53:20.979Z,98917.58
2018-06-30T10:55:55.438Z,98917.77
2018-06-30T10:58:29.815Z,98921.06
2018-06-30T11:01:04.187Z,98919.63
2018-06-30T11:03:38.589Z,98916.18
2018-06-30T11:06:13.008Z,98917.03
2018-06-30T11:08:47.431Z,98918.71
2018-06-30T11:11:21.739Z,98918.48
2018-06-30T11:13:56.167Z,98920.25
2018-06-30T11:16:30.399Z,98914.74
2018-06-30T11:19:04.883Z,98922.15
2018-06-30T11:21:39.096Z,98918.64
2018-06-30T11:24:13.448Z,98919.25
2018-06-30T11:26:47.915Z,98915.39
2018-06-30T11:29:22.713Z,98911.19
2018-06-30T11:31:56.888Z,98905.78
2018-06-30T11:34:31.108Z,98902.86
2018-06-30T11:37:05.464Z,98906.42
2018-06-30T11:39:39.701Z,98900.91
2018-06-30T11:42:13.954Z,98899.34
2018-06-30T11:44:48.363Z,98900.08
2018-06-30T11:47:22.732Z,98900.64
2018-06-30T11:49:57.118Z,98899.45
2018-06-30T11:52:31.388Z,98898.29
2018-06-30T11:55:06.072Z,98897.67
2018-06-30T11:57:40.483Z,98899.70
2018-06-30T12:00:14.931Z,98891.01
2018-06-30T12:02:49.211Z,98887.44
2018-06-30T12:05:23.605Z,98887.55
2018-06-30T12:07:57.891Z,98884.02
2018-06-30T12:10:32.307Z,98877.58
2018-06-30T12:13:06.807Z,98884.42
2018-06-30T12:15:41.227Z,98880.87
2018-06-30T12:18:15.443Z,98876.73
2018-06-30T12:20:49.875Z,98882.78
2018-06-30T12:23:24.419Z,98878.79
2018-06-30T12:25:58.830Z,98873.28
2018-06-30T12:28:33.218Z,98867.59
2018-06-30T12:31:07.612Z,98870.00
2018-06-30T12:33:41.981Z,98869.77
2018-06-30T12:36:16.341Z,98869.45
2018-06-30T12:38:50.860Z,98867.30
2018-06-30T12:41:25.341Z,98863.19
2018-06-30T12:43:59.750Z,98872.67
2018-06-30T12:46:34.484Z,98866.66
2018-06-30T12:49:09.154Z,98870.49
2018-06-30T12:51:43.688Z,98865.98
2018-06-30T12:54:18.150Z,98862.93
2018-06-30T12:56:52.525Z,98868.38
2018-06-30T12:59:26.999Z,98856.94
2018-06-30T13:02:01.582Z,98858.09
2018-06-30T13:04:36.178Z,98869.55
2018-06-30T13:07:10.739Z,98856.73
2018-06-30T13:09:45.249Z,98846.02
2018-06-30T13:12:19.661Z,98846.85
2018-06-30T13:14:54.098Z,98846.49
2018-06-30T13:17:28.701Z,98839.61
2018-06-30T13:20:03.346Z,98842.14
2018-06-30T13:22:37.900Z,98840.09
2018-06-30T13:25:12.312Z,98837.84
2018-06-30T13:27:46.799Z,98834.69
2018-06-30T13:30:21.280Z,98836.44
2018-06-30T13:32:55.642Z,98835.78
2018-06-30T13:35:30.120Z,98835.48
2018-06-30T13:38:04.634Z,98835.52
2018-06-30T13:40:39.066Z,98832.73
2018-06-30T13:43:13.711Z,98834.02
2018-06-30T13:45:48.067Z,98832.75
2018-06-30T13:48:22.453Z,98831.27
2018-06-30T13:50:56.830Z,98826.33
2018-06-30T13:53:31.222Z,98828.55
2018-06-30T13:56:05.944Z,98825.41
2018-06-30T13:58:40.547Z,98832.53
2018-06-30T14:01:15.017Z,98827.61
2018-06-30T14:03:49.749Z,98820.53
2018-06-30T14:06:24.285Z,98820.73
2018-06-30T14:08:58.750Z,98820.25
2018-06-30T14:11:33.355Z,98826.77
2018-06-30T14:14:08.346Z,98819.12
2018-06-30T14:16:42.768Z,98816.62
2018-06-30T14:19:17.264Z,98813.60
2018-06-30T14:21:51.776Z,98815.79
2018-06-30T14:24:26.327Z,98816.12
2018-06-30T14:27:00.681Z,98809.24
2018-06-30T14:29:35.145Z,98813.80
2018-06-30T14:32:09.647Z,98807.45
2018-06-30T14:34:44.225Z,98804.66
2018-06-30T14:37:18.635Z,98807.41
2018-06-30T14:39:53.188Z,98805.28
2018-06-30T14:42:27.752Z,98791.59
2018-06-30T14:45:02.328Z,98796.56
2018-06-30T14:47:36.797Z,98797.08
2018-06-30T14:50:11.168Z,98795.81
2018-06-30T14:52:45.664Z,98797.28
2018-06-30T14:55:20.232Z,98785.19
2018-06-30T14:57:54.641Z,98783.96
2018-06-30T15:00:28.951Z,98781.73
2018-06-30T15:03:03.508Z,98789.59
2018-06-30T15:05:38.125Z,98794.70
2018-06-30T15:08:12.612Z,98792.58
2018-06-30T15:10:47.254Z,98789.54
2018-06-30T15:13:21.697Z,98790.26
2018-06-30T15:15:56.262Z,98787.41
2018-06-30T15:18:30.768Z,98786.88
2018-06-30T15:21:05.165Z,98792.22
2018-06-30T15:23:39.512Z,98786.39
2018-06-30T15:26:14.064Z,98785.95
2018-06-30T15:28:48.600Z,98776.72
2018-06-30T15:31:23.033Z,98782.03
2018-06-30T15:33:57.663Z,98784.56
2018-06-30T15:36:32.120Z,98772.56
2018-06-30T15:39:08.720Z,98777.88
2018-06-30T15:41:43.176Z,98782.34
2018-06-30T15:44:17.724Z,98776.92
2018-06-30T15:46:52.474Z,98773.77
2018-06-30T15:49:27.061Z,98772.65
2018-06-30T15:52:01.665Z,98764.58
2018-06-30T15:54:36.388Z,98772.91
2018-06-30T15:57:10.829Z,98763.84
2018-06-30T15:59:45.183Z,98764.16
2018-06-30T16:02:19.680Z,98775.28
2018-06-30T16:04:54.063Z,98769.39
2018-06-30T16:07:28.731Z,98767.66
2018-06-30T16:10:03.355Z,98767.28
2018-06-30T16:12:37.779Z,98766.02
2018-06-30T16:15:12.392Z,98761.34
2018-06-30T16:17:47.001Z,98762.45
2018-06-30T16:20:21.711Z,98762.39
2018-06-30T16:22:56.215Z,98760.45
2018-06-30T16:25:30.805Z,98759.09
2018-06-30T16:28:05.747Z,98761.34
2018-06-30T16:30:40.151Z,98758.81
2018-06-30T16:33:14.645Z,98759.59
2018-06-30T16:35:49.160Z,98758.91
2018-06-30T16:38:23.698Z,98758.98
2018-06-30T16:40:58.068Z,98750.61
2018-06-30T16:43:32.445Z,98751.42
2018-06-30T16:46:06.929Z,98757.72
2018-06-30T16:48:41.524Z,98752.58
2018-06-30T16:51:16.102Z,98751.54
2018-06-30T16:53:50.880Z,98745.95
2018-06-30T16:56:25.365Z,98750.46
2018-06-30T16:59:00.001Z,98754.88
2018-06-30T17:01:34.710Z,98753.19
2018-06-30T17:04:09.451Z,98756.02
2018-06-30T17:06:43.976Z,98750.69
2018-06-30T17:09:18.628Z,98752.70
2018-06-30T17:11:53.233Z,98752.38
2018-06-30T17:14:27.644Z,98757.95
2018-06-30T17:17:02.069Z,98753.34
2018-06-30T17:19:36.547Z,98761.59
2018-06-30T17:22:11.056Z,98755.64
2018-06-30T17:24:45.420Z,98761.55
2018-06-30T17:27:19.845Z,98764.31
2018-06-30T17:29:54.436Z,98759.39
2018-06-30T17:32:29.156Z,98763.15
2018-06-30T17:35:03.734Z,98758.48
2018-06-30T17:37:38.331Z,98766.91
2018-06-30T17:40:13.041Z,98760.05
2018-06-30T17:42:47.574Z,98772.98
2018-06-30T17:45:22.169Z,98772.98
2018-06-30T17:47:56.551Z,98769.09
2018-06-30T17:50:31.201Z,98769.69
2018-06-30T17:53:05.813Z,98777.26
2018-06-30T17:55:40.452Z,98775.77
2018-06-30T17:58:14.940Z,98778.50
2018-06-30T18:00:49.463Z,98779.06
2018-06-30T18:03:23.901Z,98773.86
2018-06-30T18:05:58.626Z,98775.50
2018-06-30T18:08:33.152Z,98780.26
2018-06-30T18:11:07.761Z,98786.24
2018-06-30T18:13:42.257Z,98784.09
2018-06-30T18:16:16.636Z,98793.42
2018-06-30T18:18:51.161Z,98788.79
2018-06-30T18:21:25.744Z,98786.65
2018-06-30T18:24:00.174Z,98785.98
2018-06-30T18:26:34.708Z,98787.52
2018-06-30T18:29:09.177Z,98783.53
2018-06-30T18:31:43.568Z,98785.01
2018-06-30T18:34:17.920Z,98785.80
2018-06-30T18:36:52.404Z,98785.47
2018-06-30T18:39:26.976Z,98790.76
2018-06-30T18:42:01.532Z,98793.77
2018-06-30T18:44:36.029Z,98791.02
2018-06-30T18:47:10.604Z,98788.91
2018-06-30T18:49:45.114Z,98786.22
2018-06-30T18:52:19.732Z,98794.97
2018-06-30T18:54:54.481Z,98792.43
2018-06-30T18:57:29.172Z,98797.44
2018-06-30T19:00:03.591Z,98799.81
2018-06-30T19:02:38.141Z,98803.05
2018-06-30T19:05:12.746Z,98802.07
2018-06-30T19:07:47.486Z,98799.53
2018-06-30T19:10:22.010Z,98805.00
2018-06-30T19:12:56.453Z,98808.64
2018-06-30T19:15:30.974Z,98808.21
2018-06-30T19:18:05.874Z,98817.80
2018-06-30T19:20:40.423Z,98821.59
2018-06-30T19:23:15.037Z,98818.81
2018-06-30T19:25:49.649Z,98822.77
2018-06-30T19:28:24.273Z,98825.55
2018-06-30T19:30:58.811Z,98834.11
2018-06-30T19:33:33.258Z,98839.89
2018-06-30T19:36:07.981Z,98840.88
2018-06-30T19:38:42.532Z,98843.27
2018-06-30T19:41:17.180Z,98850.02
2018-06-30T19:43:51.796Z,98856.50
2018-06-30T19:46:26.365Z,98860.47
2018-06-30T19:49:00.968Z,98859.28
2018-06-30T19:51:35.679Z,98866.56
2018-06-30T19:54:10.195Z,98868.55
2018-06-30T19:56:44.596Z,98865.56
2018-06-30T19:59:19.084Z,98876.98
2018-06-30T20:01:53.745Z,98881.25
2018-06-30T20:04:28.332Z,98885.52
2018-06-30T20:07:02.826Z,98892.91
2018-06-30T20:09:37.324Z,98893.51
2018-06-30T20:12:11.831Z,98895.39
2018-06-30T20:14:46.530Z,98897.66
2018-06-30T20:17:21.054Z,98909.22
2018-06-30T20:19:55.706Z,98903.66
2018-06-30T20:22:30.452Z,98900.42
2018-06-30T20:25:05.371Z,98905.31
2018-06-30T20:27:39.862Z,98913.70
2018-06-30T20:30:14.661Z,98910.05
2018-06-30T20:32:49.145Z,98912.77
2018-06-30T20:35:23.766Z,98911.50
2018-06-30T20:37:58.292Z,98907.42
2018-06-30T20:40:32.713Z,98916.69
2018-06-30T20:43:07.380Z,98918.89
2018-06-30T20:45:41.901Z,98916.09
2018-06-30T20:48:17.202Z,98914.66
2018-06-30T20:50:51.869Z,98918.16
2018-06-30T20:53:26.448Z,98917.95
2018-06-30T20:56:00.881Z,98921.95
2018-06-30T20:58:35.353Z,98924.53
2018-06-30T21:01:09.833Z,98928.78
2018-06-30T21:03:44.438Z,98933.78
2018-06-30T21:06:18.717Z,98944.80
2018-06-30T21:08:53.109Z,98932.89
2018-06-30T21:11:27.500Z,98938.80
2018-06-30T21:14:01.944Z,98936.41
2018-06-30T21:16:36.578Z,98933.41
2018-06-30T21:19:12.029Z,98943.83
2018-06-30T21:21:46.640Z,98944.20
2018-06-30T21:24:21.073Z,98948.06
2018-06-30T21:26:55.518Z,98948.61
2018-06-30T21:29:29.994Z,98953.25
2018-06-30T21:32:04.396Z,98951.58
2018-06-30T21:34:39.118Z,98954.55
2018-06-30T21:37:13.788Z,98953.38
2018-06-30T21:39:48.472Z,98956.75
2018-06-30T21:42:23.182Z,98956.02
2018-06-30T21:44:57.729Z,98948.38
2018-06-30T21:47:32.403Z,98948.36
2018-06-30T21:50:06.952Z,98950.96
2018-06-30T21:52:41.587Z,98954.94
2018-06-30T21:55:16.241Z,98960.48
2018-06-30T21:57:50.755Z,98964.77
2018-06-30T22:00:48.522Z,98962.96
2018-06-30T22:03:25.281Z,98954.73
2018-06-30T22:05:59.689Z,98949.92
2018-06-30T22:08:34.189Z,98952.81
2018-06-30T22:11:08.902Z,98959.50
2018-06-30T22:13:43.328Z,98957.16
2018-06-30T22:16:18.030Z,98957.75
2018-06-30T22:18:52.601Z,98952.08
2018-06-30T22:21:27.092Z,98957.48
2018-06-30T22:24:01.541Z,98957.91
2018-06-30T22:26:36.050Z,98957.22
2018-06-30T22:29:10.435Z,98957.27
2018-06-30T22:31:44.986Z,98957.16
2018-06-30T22:34:19.466Z,98959.02
2018-06-30T22:36:54.028Z,98960.94
2018-06-30T22:39:39.979Z,98963.45
2018-06-30T22:42:14.509Z,98967.50
2018-06-30T22:44:49.168Z,98962.81
2018-06-30T22:47:23.719Z,98971.25
2018-06-30T22:49:59.037Z,98961.16
2018-06-30T22:52:33.692Z,98961.52
2018-06-30T22:55:08.407Z,98963.92
2018-06-30T22:57:42.998Z,98964.22
2018-06-30T23:00:18.734Z,98967.41
2018-06-30T23:02:53.309Z,98966.47
2018-06-30T23:05:27.910Z,98970.09
2018-06-30T23:08:02.502Z,98975.97
2018-06-30T23:10:37.218Z,98980.16
2018-06-30T23:13:11.774Z,98977.19
2018-06-30T23:15:46.395Z,98987.84
2018-06-30T23:18:20.859Z,98980.47
2018-06-30T23:20:55.310Z,98981.67
2018-06-30T23:23:29.874Z,98983.48
2018-06-30T23:26:04.539Z,98983.05
2018-06-30T23:28:39.015Z,98982.98
2018-06-30T23:31:13.580Z,98976.75
2018-06-30T23:33:48.225Z,98981.13
2018-06-30T23:36:22.729Z,98984.86
2018-06-30T23:38:57.448Z,98984.64
2018-06-30T23:41:31.976Z,98983.70
2018-06-30T23:44:06.398Z,98981.67
2018-06-30T23:46:41.023Z,98983.33
2018-06-30T23:49:15.412Z,98976.46
2018-06-30T23:51:49.861Z,98988.68
2018-06-30T23:54:24.453Z,98982.74
2018-06-30T23:56:58.932Z,98981.59
2018-06-30T23:59:33.378Z,98993.30
